<?xml version="1.0" encoding="UTF-8" standalone="no" ?>
<gpx xmlns="http://www.topografix.com/GPX/1/1" xmlns:xsi="http://www.w3.org/2001/XMLSchema-instance" xsi:schemaLocation="http://www.topografix.com/GPX/1/1 http://www.topografix.com/GPX/1/1/gpx.xsd" version="1.1" creator="VisuGPX - https://www.visugpx.com">
  <metadata>
    <name>CAP depuis Sardan</name>
    <desc><![CDATA[CAP sur route                     ]]></desc>
  </metadata>
  <trk>
    <name><![CDATA[20180603104649-jpql3]]></name>
    <trkseg>
      <trkpt lat="43.87125" lon="4.0403">
        <ele>60</ele>
        <time>2018-05-12T08:54:04Z</time>
      </trkpt>
      <trkpt lat="43.87123" lon="4.04029">
        <ele>60</ele>
        <time>2018-05-12T08:54:05Z</time>
      </trkpt>
      <trkpt lat="43.87122" lon="4.04029">
        <ele>60</ele>
        <time>2018-05-12T08:54:06Z</time>
      </trkpt>
      <trkpt lat="43.87119" lon="4.04029">
        <ele>60</ele>
        <time>2018-05-12T08:54:07Z</time>
      </trkpt>
      <trkpt lat="43.87116" lon="4.04029">
        <ele>60</ele>
        <time>2018-05-12T08:54:08Z</time>
      </trkpt>
      <trkpt lat="43.87113" lon="4.04028">
        <ele>60</ele>
        <time>2018-05-12T08:54:09Z</time>
      </trkpt>
      <trkpt lat="43.87111" lon="4.04029">
        <ele>60</ele>
        <time>2018-05-12T08:54:10Z</time>
      </trkpt>
      <trkpt lat="43.87103" lon="4.04028">
        <ele>60</ele>
        <time>2018-05-12T08:54:13Z</time>
      </trkpt>
      <trkpt lat="43.87096" lon="4.04028">
        <ele>60</ele>
        <time>2018-05-12T08:54:15Z</time>
      </trkpt>
      <trkpt lat="43.87091" lon="4.04029">
        <ele>60</ele>
        <time>2018-05-12T08:54:17Z</time>
      </trkpt>
      <trkpt lat="43.87085" lon="4.04032">
        <ele>60</ele>
        <time>2018-05-12T08:54:19Z</time>
      </trkpt>
      <trkpt lat="43.8708" lon="4.04034">
        <ele>58</ele>
        <time>2018-05-12T08:54:21Z</time>
      </trkpt>
      <trkpt lat="43.87069" lon="4.04039">
        <ele>58</ele>
        <time>2018-05-12T08:54:25Z</time>
      </trkpt>
      <trkpt lat="43.87058" lon="4.04047">
        <ele>58</ele>
        <time>2018-05-12T08:54:29Z</time>
      </trkpt>
      <trkpt lat="43.87039" lon="4.04061">
        <ele>57</ele>
        <time>2018-05-12T08:54:36Z</time>
      </trkpt>
      <trkpt lat="43.87021" lon="4.04073">
        <ele>56</ele>
        <time>2018-05-12T08:54:42Z</time>
      </trkpt>
      <trkpt lat="43.8701" lon="4.04079">
        <ele>55</ele>
        <time>2018-05-12T08:54:46Z</time>
      </trkpt>
      <trkpt lat="43.86998" lon="4.04084">
        <ele>54</ele>
        <time>2018-05-12T08:54:50Z</time>
      </trkpt>
      <trkpt lat="43.86983" lon="4.0409">
        <ele>54</ele>
        <time>2018-05-12T08:54:55Z</time>
      </trkpt>
      <trkpt lat="43.86967" lon="4.04096">
        <ele>54</ele>
        <time>2018-05-12T08:55:00Z</time>
      </trkpt>
      <trkpt lat="43.86952" lon="4.04101">
        <ele>54</ele>
        <time>2018-05-12T08:55:05Z</time>
      </trkpt>
      <trkpt lat="43.86937" lon="4.04101">
        <ele>54</ele>
        <time>2018-05-12T08:55:10Z</time>
      </trkpt>
      <trkpt lat="43.86916" lon="4.041">
        <ele>54</ele>
        <time>2018-05-12T08:55:17Z</time>
      </trkpt>
      <trkpt lat="43.86896" lon="4.04093">
        <ele>53</ele>
        <time>2018-05-12T08:55:24Z</time>
      </trkpt>
      <trkpt lat="43.86877" lon="4.04084">
        <ele>53</ele>
        <time>2018-05-12T08:55:31Z</time>
      </trkpt>
      <trkpt lat="43.86858" lon="4.04075">
        <ele>53</ele>
        <time>2018-05-12T08:55:38Z</time>
      </trkpt>
      <trkpt lat="43.86838" lon="4.04067">
        <ele>53</ele>
        <time>2018-05-12T08:55:45Z</time>
      </trkpt>
      <trkpt lat="43.86817" lon="4.0406">
        <ele>53</ele>
        <time>2018-05-12T08:55:52Z</time>
      </trkpt>
      <trkpt lat="43.86798" lon="4.04053">
        <ele>53</ele>
        <time>2018-05-12T08:55:59Z</time>
      </trkpt>
      <trkpt lat="43.86776" lon="4.04046">
        <ele>53</ele>
        <time>2018-05-12T08:56:07Z</time>
      </trkpt>
      <trkpt lat="43.86756" lon="4.0404">
        <ele>53</ele>
        <time>2018-05-12T08:56:14Z</time>
      </trkpt>
      <trkpt lat="43.86735" lon="4.04034">
        <ele>54</ele>
        <time>2018-05-12T08:56:21Z</time>
      </trkpt>
      <trkpt lat="43.86714" lon="4.04031">
        <ele>54</ele>
        <time>2018-05-12T08:56:28Z</time>
      </trkpt>
      <trkpt lat="43.86693" lon="4.0403">
        <ele>54</ele>
        <time>2018-05-12T08:56:35Z</time>
      </trkpt>
      <trkpt lat="43.86673" lon="4.0403">
        <ele>54</ele>
        <time>2018-05-12T08:56:42Z</time>
      </trkpt>
      <trkpt lat="43.8665" lon="4.04031">
        <ele>53</ele>
        <time>2018-05-12T08:56:50Z</time>
      </trkpt>
      <trkpt lat="43.86628" lon="4.0403">
        <ele>53</ele>
        <time>2018-05-12T08:56:57Z</time>
      </trkpt>
      <trkpt lat="43.86605" lon="4.04029">
        <ele>53</ele>
        <time>2018-05-12T08:57:04Z</time>
      </trkpt>
      <trkpt lat="43.86582" lon="4.04029">
        <ele>52</ele>
        <time>2018-05-12T08:57:11Z</time>
      </trkpt>
      <trkpt lat="43.86562" lon="4.04028">
        <ele>52</ele>
        <time>2018-05-12T08:57:18Z</time>
      </trkpt>
      <trkpt lat="43.86541" lon="4.04027">
        <ele>52</ele>
        <time>2018-05-12T08:57:25Z</time>
      </trkpt>
      <trkpt lat="43.86521" lon="4.04027">
        <ele>52</ele>
        <time>2018-05-12T08:57:32Z</time>
      </trkpt>
      <trkpt lat="43.86501" lon="4.04027">
        <ele>52</ele>
        <time>2018-05-12T08:57:39Z</time>
      </trkpt>
      <trkpt lat="43.8648" lon="4.04026">
        <ele>52</ele>
        <time>2018-05-12T08:57:46Z</time>
      </trkpt>
      <trkpt lat="43.86458" lon="4.04026">
        <ele>52</ele>
        <time>2018-05-12T08:57:53Z</time>
      </trkpt>
      <trkpt lat="43.86436" lon="4.04027">
        <ele>52</ele>
        <time>2018-05-12T08:58:00Z</time>
      </trkpt>
      <trkpt lat="43.86413" lon="4.0403">
        <ele>52</ele>
        <time>2018-05-12T08:58:07Z</time>
      </trkpt>
      <trkpt lat="43.86392" lon="4.04032">
        <ele>52</ele>
        <time>2018-05-12T08:58:14Z</time>
      </trkpt>
      <trkpt lat="43.86372" lon="4.04035">
        <ele>52</ele>
        <time>2018-05-12T08:58:21Z</time>
      </trkpt>
      <trkpt lat="43.8635" lon="4.0404">
        <ele>52</ele>
        <time>2018-05-12T08:58:28Z</time>
      </trkpt>
      <trkpt lat="43.86329" lon="4.04046">
        <ele>52</ele>
        <time>2018-05-12T08:58:35Z</time>
      </trkpt>
      <trkpt lat="43.86308" lon="4.04056">
        <ele>52</ele>
        <time>2018-05-12T08:58:42Z</time>
      </trkpt>
      <trkpt lat="43.86288" lon="4.04067">
        <ele>52</ele>
        <time>2018-05-12T08:58:49Z</time>
      </trkpt>
      <trkpt lat="43.86268" lon="4.04076">
        <ele>51</ele>
        <time>2018-05-12T08:58:56Z</time>
      </trkpt>
      <trkpt lat="43.86249" lon="4.04086">
        <ele>51</ele>
        <time>2018-05-12T08:59:03Z</time>
      </trkpt>
      <trkpt lat="43.86228" lon="4.04099">
        <ele>51</ele>
        <time>2018-05-12T08:59:11Z</time>
      </trkpt>
      <trkpt lat="43.86208" lon="4.04111">
        <ele>51</ele>
        <time>2018-05-12T08:59:18Z</time>
      </trkpt>
      <trkpt lat="43.86188" lon="4.04121">
        <ele>51</ele>
        <time>2018-05-12T08:59:25Z</time>
      </trkpt>
      <trkpt lat="43.86167" lon="4.0413">
        <ele>51</ele>
        <time>2018-05-12T08:59:32Z</time>
      </trkpt>
      <trkpt lat="43.86145" lon="4.04138">
        <ele>51</ele>
        <time>2018-05-12T08:59:39Z</time>
      </trkpt>
      <trkpt lat="43.86123" lon="4.04144">
        <ele>51</ele>
        <time>2018-05-12T08:59:46Z</time>
      </trkpt>
      <trkpt lat="43.86102" lon="4.04151">
        <ele>51</ele>
        <time>2018-05-12T08:59:53Z</time>
      </trkpt>
      <trkpt lat="43.86081" lon="4.04157">
        <ele>51</ele>
        <time>2018-05-12T08:59:59Z</time>
      </trkpt>
      <trkpt lat="43.86061" lon="4.04162">
        <ele>51</ele>
        <time>2018-05-12T09:00:05Z</time>
      </trkpt>
      <trkpt lat="43.86041" lon="4.04168">
        <ele>52</ele>
        <time>2018-05-12T09:00:12Z</time>
      </trkpt>
      <trkpt lat="43.86022" lon="4.04174">
        <ele>52</ele>
        <time>2018-05-12T09:00:19Z</time>
      </trkpt>
      <trkpt lat="43.86002" lon="4.0418">
        <ele>51</ele>
        <time>2018-05-12T09:00:26Z</time>
      </trkpt>
      <trkpt lat="43.85981" lon="4.04187">
        <ele>52</ele>
        <time>2018-05-12T09:00:33Z</time>
      </trkpt>
      <trkpt lat="43.85961" lon="4.04193">
        <ele>52</ele>
        <time>2018-05-12T09:00:40Z</time>
      </trkpt>
      <trkpt lat="43.8594" lon="4.04199">
        <ele>52</ele>
        <time>2018-05-12T09:00:47Z</time>
      </trkpt>
      <trkpt lat="43.85919" lon="4.04206">
        <ele>52</ele>
        <time>2018-05-12T09:00:54Z</time>
      </trkpt>
      <trkpt lat="43.859" lon="4.04219">
        <ele>52</ele>
        <time>2018-05-12T09:01:01Z</time>
      </trkpt>
      <trkpt lat="43.85882" lon="4.04233">
        <ele>51</ele>
        <time>2018-05-12T09:01:08Z</time>
      </trkpt>
      <trkpt lat="43.85865" lon="4.04246">
        <ele>51</ele>
        <time>2018-05-12T09:01:15Z</time>
      </trkpt>
      <trkpt lat="43.85848" lon="4.04261">
        <ele>50</ele>
        <time>2018-05-12T09:01:22Z</time>
      </trkpt>
      <trkpt lat="43.85832" lon="4.04276">
        <ele>50</ele>
        <time>2018-05-12T09:01:29Z</time>
      </trkpt>
      <trkpt lat="43.85815" lon="4.04293">
        <ele>50</ele>
        <time>2018-05-12T09:01:36Z</time>
      </trkpt>
      <trkpt lat="43.85799" lon="4.04308">
        <ele>50</ele>
        <time>2018-05-12T09:01:42Z</time>
      </trkpt>
      <trkpt lat="43.85783" lon="4.04328">
        <ele>51</ele>
        <time>2018-05-12T09:01:49Z</time>
      </trkpt>
      <trkpt lat="43.8577" lon="4.04345">
        <ele>50</ele>
        <time>2018-05-12T09:01:55Z</time>
      </trkpt>
      <trkpt lat="43.85755" lon="4.04365">
        <ele>50</ele>
        <time>2018-05-12T09:02:02Z</time>
      </trkpt>
      <trkpt lat="43.85739" lon="4.04385">
        <ele>51</ele>
        <time>2018-05-12T09:02:09Z</time>
      </trkpt>
      <trkpt lat="43.85723" lon="4.04405">
        <ele>52</ele>
        <time>2018-05-12T09:02:16Z</time>
      </trkpt>
      <trkpt lat="43.85707" lon="4.04424">
        <ele>52</ele>
        <time>2018-05-12T09:02:23Z</time>
      </trkpt>
      <trkpt lat="43.8569" lon="4.04442">
        <ele>52</ele>
        <time>2018-05-12T09:02:30Z</time>
      </trkpt>
      <trkpt lat="43.85675" lon="4.04458">
        <ele>52</ele>
        <time>2018-05-12T09:02:37Z</time>
      </trkpt>
      <trkpt lat="43.85658" lon="4.04473">
        <ele>54</ele>
        <time>2018-05-12T09:02:44Z</time>
      </trkpt>
      <trkpt lat="43.85639" lon="4.04489">
        <ele>54</ele>
        <time>2018-05-12T09:02:52Z</time>
      </trkpt>
      <trkpt lat="43.85621" lon="4.04504">
        <ele>53</ele>
        <time>2018-05-12T09:02:59Z</time>
      </trkpt>
      <trkpt lat="43.85604" lon="4.04518">
        <ele>54</ele>
        <time>2018-05-12T09:03:06Z</time>
      </trkpt>
      <trkpt lat="43.85586" lon="4.04532">
        <ele>54</ele>
        <time>2018-05-12T09:03:13Z</time>
      </trkpt>
      <trkpt lat="43.85568" lon="4.04548">
        <ele>55</ele>
        <time>2018-05-12T09:03:20Z</time>
      </trkpt>
      <trkpt lat="43.85551" lon="4.04565">
        <ele>55</ele>
        <time>2018-05-12T09:03:27Z</time>
      </trkpt>
      <trkpt lat="43.85536" lon="4.04583">
        <ele>56</ele>
        <time>2018-05-12T09:03:34Z</time>
      </trkpt>
      <trkpt lat="43.85517" lon="4.04601">
        <ele>56</ele>
        <time>2018-05-12T09:03:42Z</time>
      </trkpt>
      <trkpt lat="43.85495" lon="4.04611">
        <ele>58</ele>
        <time>2018-05-12T09:03:50Z</time>
      </trkpt>
      <trkpt lat="43.85473" lon="4.04617">
        <ele>58</ele>
        <time>2018-05-12T09:03:58Z</time>
      </trkpt>
      <trkpt lat="43.85457" lon="4.04624">
        <ele>59</ele>
        <time>2018-05-12T09:04:03Z</time>
      </trkpt>
      <trkpt lat="43.85451" lon="4.04627">
        <ele>59</ele>
        <time>2018-05-12T09:04:05Z</time>
      </trkpt>
      <trkpt lat="43.85427" lon="4.04637">
        <ele>59</ele>
        <time>2018-05-12T09:04:13Z</time>
      </trkpt>
      <trkpt lat="43.85404" lon="4.04641">
        <ele>61</ele>
        <time>2018-05-12T09:04:21Z</time>
      </trkpt>
      <trkpt lat="43.85381" lon="4.04646">
        <ele>61</ele>
        <time>2018-05-12T09:04:29Z</time>
      </trkpt>
      <trkpt lat="43.85357" lon="4.04649">
        <ele>62</ele>
        <time>2018-05-12T09:04:37Z</time>
      </trkpt>
      <trkpt lat="43.85335" lon="4.04645">
        <ele>62</ele>
        <time>2018-05-12T09:04:45Z</time>
      </trkpt>
      <trkpt lat="43.85312" lon="4.04644">
        <ele>63</ele>
        <time>2018-05-12T09:04:53Z</time>
      </trkpt>
      <trkpt lat="43.85289" lon="4.04642">
        <ele>62</ele>
        <time>2018-05-12T09:05:02Z</time>
      </trkpt>
      <trkpt lat="43.85268" lon="4.04639">
        <ele>62</ele>
        <time>2018-05-12T09:05:10Z</time>
      </trkpt>
      <trkpt lat="43.85245" lon="4.04639">
        <ele>63</ele>
        <time>2018-05-12T09:05:18Z</time>
      </trkpt>
      <trkpt lat="43.85223" lon="4.04642">
        <ele>63</ele>
        <time>2018-05-12T09:05:26Z</time>
      </trkpt>
      <trkpt lat="43.852" lon="4.04647">
        <ele>63</ele>
        <time>2018-05-12T09:05:34Z</time>
      </trkpt>
      <trkpt lat="43.85177" lon="4.04652">
        <ele>63</ele>
        <time>2018-05-12T09:05:42Z</time>
      </trkpt>
      <trkpt lat="43.85156" lon="4.04658">
        <ele>63</ele>
        <time>2018-05-12T09:05:50Z</time>
      </trkpt>
      <trkpt lat="43.85135" lon="4.04664">
        <ele>63</ele>
        <time>2018-05-12T09:05:58Z</time>
      </trkpt>
      <trkpt lat="43.85115" lon="4.04672">
        <ele>66</ele>
        <time>2018-05-12T09:06:05Z</time>
      </trkpt>
      <trkpt lat="43.85097" lon="4.04681">
        <ele>65</ele>
        <time>2018-05-12T09:06:12Z</time>
      </trkpt>
      <trkpt lat="43.85077" lon="4.04691">
        <ele>66</ele>
        <time>2018-05-12T09:06:19Z</time>
      </trkpt>
      <trkpt lat="43.85059" lon="4.04702">
        <ele>67</ele>
        <time>2018-05-12T09:06:26Z</time>
      </trkpt>
      <trkpt lat="43.85042" lon="4.04715">
        <ele>67</ele>
        <time>2018-05-12T09:06:33Z</time>
      </trkpt>
      <trkpt lat="43.85024" lon="4.04728">
        <ele>68</ele>
        <time>2018-05-12T09:06:40Z</time>
      </trkpt>
      <trkpt lat="43.85006" lon="4.04744">
        <ele>69</ele>
        <time>2018-05-12T09:06:48Z</time>
      </trkpt>
      <trkpt lat="43.84989" lon="4.04757">
        <ele>69</ele>
        <time>2018-05-12T09:06:55Z</time>
      </trkpt>
      <trkpt lat="43.84972" lon="4.0477">
        <ele>69</ele>
        <time>2018-05-12T09:07:02Z</time>
      </trkpt>
      <trkpt lat="43.84956" lon="4.04784">
        <ele>69</ele>
        <time>2018-05-12T09:07:09Z</time>
      </trkpt>
      <trkpt lat="43.84939" lon="4.04796">
        <ele>69</ele>
        <time>2018-05-12T09:07:16Z</time>
      </trkpt>
      <trkpt lat="43.84921" lon="4.04808">
        <ele>69</ele>
        <time>2018-05-12T09:07:23Z</time>
      </trkpt>
      <trkpt lat="43.84902" lon="4.04817">
        <ele>68</ele>
        <time>2018-05-12T09:07:30Z</time>
      </trkpt>
      <trkpt lat="43.84883" lon="4.04825">
        <ele>68</ele>
        <time>2018-05-12T09:07:37Z</time>
      </trkpt>
      <trkpt lat="43.84864" lon="4.04832">
        <ele>68</ele>
        <time>2018-05-12T09:07:44Z</time>
      </trkpt>
      <trkpt lat="43.84843" lon="4.0484">
        <ele>70</ele>
        <time>2018-05-12T09:07:52Z</time>
      </trkpt>
      <trkpt lat="43.84822" lon="4.04847">
        <ele>69</ele>
        <time>2018-05-12T09:08:00Z</time>
      </trkpt>
      <trkpt lat="43.84804" lon="4.04856">
        <ele>68</ele>
        <time>2018-05-12T09:08:08Z</time>
      </trkpt>
      <trkpt lat="43.84797" lon="4.04853">
        <ele>68</ele>
        <time>2018-05-12T09:08:13Z</time>
      </trkpt>
      <trkpt lat="43.84797" lon="4.04851">
        <ele>68</ele>
        <time>2018-05-12T09:08:18Z</time>
      </trkpt>
      <trkpt lat="43.84797" lon="4.04849">
        <ele>68</ele>
        <time>2018-05-12T09:08:22Z</time>
      </trkpt>
      <trkpt lat="43.84797" lon="4.04849">
        <ele>68</ele>
        <time>2018-05-12T09:08:24Z</time>
      </trkpt>
      <trkpt lat="43.84797" lon="4.04848">
        <ele>68</ele>
        <time>2018-05-12T09:08:27Z</time>
      </trkpt>
      <trkpt lat="43.84797" lon="4.04846">
        <ele>68</ele>
        <time>2018-05-12T09:08:31Z</time>
      </trkpt>
      <trkpt lat="43.84799" lon="4.04845">
        <ele>68</ele>
        <time>2018-05-12T09:08:32Z</time>
      </trkpt>
      <trkpt lat="43.84802" lon="4.0484">
        <ele>68</ele>
        <time>2018-05-12T09:08:35Z</time>
      </trkpt>
      <trkpt lat="43.84803" lon="4.04839">
        <ele>68</ele>
        <time>2018-05-12T09:08:36Z</time>
      </trkpt>
      <trkpt lat="43.84803" lon="4.04838">
        <ele>68</ele>
        <time>2018-05-12T09:08:40Z</time>
      </trkpt>
      <trkpt lat="43.84801" lon="4.04836">
        <ele>68</ele>
        <time>2018-05-12T09:08:42Z</time>
      </trkpt>
      <trkpt lat="43.848" lon="4.04835">
        <ele>68</ele>
        <time>2018-05-12T09:08:43Z</time>
      </trkpt>
      <trkpt lat="43.84798" lon="4.04833">
        <ele>68</ele>
        <time>2018-05-12T09:08:44Z</time>
      </trkpt>
      <trkpt lat="43.84796" lon="4.0483">
        <ele>67</ele>
        <time>2018-05-12T09:08:45Z</time>
      </trkpt>
      <trkpt lat="43.84794" lon="4.04826">
        <ele>67</ele>
        <time>2018-05-12T09:08:46Z</time>
      </trkpt>
      <trkpt lat="43.84787" lon="4.04817">
        <ele>67</ele>
        <time>2018-05-12T09:08:49Z</time>
      </trkpt>
      <trkpt lat="43.84778" lon="4.04805">
        <ele>67</ele>
        <time>2018-05-12T09:08:53Z</time>
      </trkpt>
      <trkpt lat="43.84762" lon="4.04784">
        <ele>67</ele>
        <time>2018-05-12T09:09:00Z</time>
      </trkpt>
      <trkpt lat="43.84751" lon="4.04768">
        <ele>66</ele>
        <time>2018-05-12T09:09:05Z</time>
      </trkpt>
      <trkpt lat="43.84745" lon="4.04758">
        <ele>66</ele>
        <time>2018-05-12T09:09:08Z</time>
      </trkpt>
      <trkpt lat="43.84739" lon="4.04749">
        <ele>66</ele>
        <time>2018-05-12T09:09:11Z</time>
      </trkpt>
      <trkpt lat="43.84732" lon="4.04735">
        <ele>66</ele>
        <time>2018-05-12T09:09:15Z</time>
      </trkpt>
      <trkpt lat="43.84722" lon="4.0472">
        <ele>66</ele>
        <time>2018-05-12T09:09:20Z</time>
      </trkpt>
      <trkpt lat="43.84708" lon="4.04698">
        <ele>66</ele>
        <time>2018-05-12T09:09:27Z</time>
      </trkpt>
      <trkpt lat="43.84693" lon="4.04677">
        <ele>66</ele>
        <time>2018-05-12T09:09:34Z</time>
      </trkpt>
      <trkpt lat="43.8468" lon="4.04655">
        <ele>66</ele>
        <time>2018-05-12T09:09:41Z</time>
      </trkpt>
      <trkpt lat="43.84676" lon="4.04649">
        <ele>66</ele>
        <time>2018-05-12T09:09:43Z</time>
      </trkpt>
      <trkpt lat="43.84666" lon="4.04633">
        <ele>66</ele>
        <time>2018-05-12T09:09:48Z</time>
      </trkpt>
      <trkpt lat="43.84658" lon="4.04605">
        <ele>65</ele>
        <time>2018-05-12T09:09:55Z</time>
      </trkpt>
      <trkpt lat="43.84656" lon="4.04576">
        <ele>65</ele>
        <time>2018-05-12T09:10:02Z</time>
      </trkpt>
      <trkpt lat="43.84657" lon="4.04548">
        <ele>65</ele>
        <time>2018-05-12T09:10:09Z</time>
      </trkpt>
      <trkpt lat="43.84656" lon="4.04521">
        <ele>65</ele>
        <time>2018-05-12T09:10:16Z</time>
      </trkpt>
      <trkpt lat="43.84656" lon="4.04494">
        <ele>65</ele>
        <time>2018-05-12T09:10:23Z</time>
      </trkpt>
      <trkpt lat="43.84658" lon="4.04467">
        <ele>66</ele>
        <time>2018-05-12T09:10:30Z</time>
      </trkpt>
      <trkpt lat="43.8466" lon="4.04435">
        <ele>66</ele>
        <time>2018-05-12T09:10:38Z</time>
      </trkpt>
      <trkpt lat="43.84662" lon="4.04404">
        <ele>67</ele>
        <time>2018-05-12T09:10:46Z</time>
      </trkpt>
      <trkpt lat="43.84664" lon="4.04375">
        <ele>67</ele>
        <time>2018-05-12T09:10:53Z</time>
      </trkpt>
      <trkpt lat="43.84668" lon="4.04344">
        <ele>68</ele>
        <time>2018-05-12T09:11:01Z</time>
      </trkpt>
      <trkpt lat="43.8467" lon="4.04315">
        <ele>69</ele>
        <time>2018-05-12T09:11:08Z</time>
      </trkpt>
      <trkpt lat="43.84673" lon="4.04289">
        <ele>69</ele>
        <time>2018-05-12T09:11:15Z</time>
      </trkpt>
      <trkpt lat="43.84678" lon="4.04259">
        <ele>69</ele>
        <time>2018-05-12T09:11:23Z</time>
      </trkpt>
      <trkpt lat="43.84686" lon="4.0423">
        <ele>69</ele>
        <time>2018-05-12T09:11:31Z</time>
      </trkpt>
      <trkpt lat="43.84697" lon="4.04202">
        <ele>69</ele>
        <time>2018-05-12T09:11:39Z</time>
      </trkpt>
      <trkpt lat="43.84708" lon="4.04178">
        <ele>69</ele>
        <time>2018-05-12T09:11:46Z</time>
      </trkpt>
      <trkpt lat="43.84717" lon="4.04153">
        <ele>69</ele>
        <time>2018-05-12T09:11:53Z</time>
      </trkpt>
      <trkpt lat="43.84727" lon="4.04129">
        <ele>69</ele>
        <time>2018-05-12T09:12:00Z</time>
      </trkpt>
      <trkpt lat="43.84736" lon="4.04105">
        <ele>69</ele>
        <time>2018-05-12T09:12:07Z</time>
      </trkpt>
      <trkpt lat="43.84746" lon="4.0408">
        <ele>70</ele>
        <time>2018-05-12T09:12:15Z</time>
      </trkpt>
      <trkpt lat="43.8475" lon="4.04053">
        <ele>70</ele>
        <time>2018-05-12T09:12:23Z</time>
      </trkpt>
      <trkpt lat="43.84748" lon="4.0405">
        <ele>70</ele>
        <time>2018-05-12T09:12:24Z</time>
      </trkpt>
      <trkpt lat="43.84746" lon="4.04048">
        <ele>70</ele>
        <time>2018-05-12T09:12:25Z</time>
      </trkpt>
      <trkpt lat="43.84744" lon="4.04046">
        <ele>70</ele>
        <time>2018-05-12T09:12:26Z</time>
      </trkpt>
      <trkpt lat="43.84741" lon="4.04045">
        <ele>70</ele>
        <time>2018-05-12T09:12:27Z</time>
      </trkpt>
      <trkpt lat="43.84739" lon="4.04044">
        <ele>70</ele>
        <time>2018-05-12T09:12:28Z</time>
      </trkpt>
      <trkpt lat="43.84717" lon="4.04039">
        <ele>70</ele>
        <time>2018-05-12T09:12:36Z</time>
      </trkpt>
      <trkpt lat="43.84696" lon="4.04034">
        <ele>70</ele>
        <time>2018-05-12T09:12:44Z</time>
      </trkpt>
      <trkpt lat="43.84675" lon="4.04027">
        <ele>70</ele>
        <time>2018-05-12T09:12:52Z</time>
      </trkpt>
      <trkpt lat="43.84655" lon="4.04021">
        <ele>70</ele>
        <time>2018-05-12T09:12:59Z</time>
      </trkpt>
      <trkpt lat="43.84636" lon="4.04015">
        <ele>70</ele>
        <time>2018-05-12T09:13:06Z</time>
      </trkpt>
      <trkpt lat="43.84614" lon="4.04008">
        <ele>70</ele>
        <time>2018-05-12T09:13:14Z</time>
      </trkpt>
      <trkpt lat="43.84593" lon="4.04">
        <ele>70</ele>
        <time>2018-05-12T09:13:22Z</time>
      </trkpt>
      <trkpt lat="43.84572" lon="4.03988">
        <ele>71</ele>
        <time>2018-05-12T09:13:30Z</time>
      </trkpt>
      <trkpt lat="43.84551" lon="4.03977">
        <ele>71</ele>
        <time>2018-05-12T09:13:38Z</time>
      </trkpt>
      <trkpt lat="43.84531" lon="4.03965">
        <ele>71</ele>
        <time>2018-05-12T09:13:46Z</time>
      </trkpt>
      <trkpt lat="43.84511" lon="4.03951">
        <ele>71</ele>
        <time>2018-05-12T09:13:54Z</time>
      </trkpt>
      <trkpt lat="43.84491" lon="4.03938">
        <ele>71</ele>
        <time>2018-05-12T09:14:02Z</time>
      </trkpt>
      <trkpt lat="43.84472" lon="4.03923">
        <ele>71</ele>
        <time>2018-05-12T09:14:10Z</time>
      </trkpt>
      <trkpt lat="43.84454" lon="4.0391">
        <ele>71</ele>
        <time>2018-05-12T09:14:17Z</time>
      </trkpt>
      <trkpt lat="43.84436" lon="4.03896">
        <ele>71</ele>
        <time>2018-05-12T09:14:24Z</time>
      </trkpt>
      <trkpt lat="43.84418" lon="4.03879">
        <ele>72</ele>
        <time>2018-05-12T09:14:31Z</time>
      </trkpt>
      <trkpt lat="43.84402" lon="4.03861">
        <ele>71</ele>
        <time>2018-05-12T09:14:38Z</time>
      </trkpt>
      <trkpt lat="43.84385" lon="4.03842">
        <ele>71</ele>
        <time>2018-05-12T09:14:45Z</time>
      </trkpt>
      <trkpt lat="43.8437" lon="4.03822">
        <ele>72</ele>
        <time>2018-05-12T09:14:52Z</time>
      </trkpt>
      <trkpt lat="43.84356" lon="4.03802">
        <ele>72</ele>
        <time>2018-05-12T09:14:59Z</time>
      </trkpt>
      <trkpt lat="43.8434" lon="4.03782">
        <ele>72</ele>
        <time>2018-05-12T09:15:07Z</time>
      </trkpt>
      <trkpt lat="43.84325" lon="4.03763">
        <ele>72</ele>
        <time>2018-05-12T09:15:14Z</time>
      </trkpt>
      <trkpt lat="43.84312" lon="4.03744">
        <ele>73</ele>
        <time>2018-05-12T09:15:21Z</time>
      </trkpt>
      <trkpt lat="43.84295" lon="4.03728">
        <ele>73</ele>
        <time>2018-05-12T09:15:28Z</time>
      </trkpt>
      <trkpt lat="43.84279" lon="4.03714">
        <ele>73</ele>
        <time>2018-05-12T09:15:35Z</time>
      </trkpt>
      <trkpt lat="43.84263" lon="4.037">
        <ele>73</ele>
        <time>2018-05-12T09:15:42Z</time>
      </trkpt>
      <trkpt lat="43.84245" lon="4.03689">
        <ele>73</ele>
        <time>2018-05-12T09:15:49Z</time>
      </trkpt>
      <trkpt lat="43.84227" lon="4.03677">
        <ele>73</ele>
        <time>2018-05-12T09:15:56Z</time>
      </trkpt>
      <trkpt lat="43.84209" lon="4.03664">
        <ele>74</ele>
        <time>2018-05-12T09:16:03Z</time>
      </trkpt>
      <trkpt lat="43.84192" lon="4.0365">
        <ele>73</ele>
        <time>2018-05-12T09:16:10Z</time>
      </trkpt>
      <trkpt lat="43.84175" lon="4.03636">
        <ele>73</ele>
        <time>2018-05-12T09:16:17Z</time>
      </trkpt>
      <trkpt lat="43.84156" lon="4.03621">
        <ele>72</ele>
        <time>2018-05-12T09:16:25Z</time>
      </trkpt>
      <trkpt lat="43.84139" lon="4.03608">
        <ele>72</ele>
        <time>2018-05-12T09:16:32Z</time>
      </trkpt>
      <trkpt lat="43.84121" lon="4.03598">
        <ele>72</ele>
        <time>2018-05-12T09:16:39Z</time>
      </trkpt>
      <trkpt lat="43.84104" lon="4.03586">
        <ele>72</ele>
        <time>2018-05-12T09:16:46Z</time>
      </trkpt>
      <trkpt lat="43.84085" lon="4.03573">
        <ele>72</ele>
        <time>2018-05-12T09:16:54Z</time>
      </trkpt>
      <trkpt lat="43.84068" lon="4.03561">
        <ele>71</ele>
        <time>2018-05-12T09:17:01Z</time>
      </trkpt>
      <trkpt lat="43.84051" lon="4.03549">
        <ele>72</ele>
        <time>2018-05-12T09:17:08Z</time>
      </trkpt>
      <trkpt lat="43.84033" lon="4.03535">
        <ele>71</ele>
        <time>2018-05-12T09:17:15Z</time>
      </trkpt>
      <trkpt lat="43.84016" lon="4.03523">
        <ele>71</ele>
        <time>2018-05-12T09:17:22Z</time>
      </trkpt>
      <trkpt lat="43.83997" lon="4.03505">
        <ele>71</ele>
        <time>2018-05-12T09:17:29Z</time>
      </trkpt>
      <trkpt lat="43.83985" lon="4.0348">
        <ele>71</ele>
        <time>2018-05-12T09:17:36Z</time>
      </trkpt>
      <trkpt lat="43.83974" lon="4.03455">
        <ele>72</ele>
        <time>2018-05-12T09:17:43Z</time>
      </trkpt>
      <trkpt lat="43.8396" lon="4.03437">
        <ele>72</ele>
        <time>2018-05-12T09:17:50Z</time>
      </trkpt>
      <trkpt lat="43.83943" lon="4.0342">
        <ele>72</ele>
        <time>2018-05-12T09:17:57Z</time>
      </trkpt>
      <trkpt lat="43.83927" lon="4.03402">
        <ele>73</ele>
        <time>2018-05-12T09:18:04Z</time>
      </trkpt>
      <trkpt lat="43.83912" lon="4.03384">
        <ele>73</ele>
        <time>2018-05-12T09:18:11Z</time>
      </trkpt>
      <trkpt lat="43.83898" lon="4.03364">
        <ele>73</ele>
        <time>2018-05-12T09:18:18Z</time>
      </trkpt>
      <trkpt lat="43.83884" lon="4.03343">
        <ele>73</ele>
        <time>2018-05-12T09:18:25Z</time>
      </trkpt>
      <trkpt lat="43.8387" lon="4.03322">
        <ele>73</ele>
        <time>2018-05-12T09:18:32Z</time>
      </trkpt>
      <trkpt lat="43.83859" lon="4.03299">
        <ele>73</ele>
        <time>2018-05-12T09:18:39Z</time>
      </trkpt>
      <trkpt lat="43.83847" lon="4.03278">
        <ele>73</ele>
        <time>2018-05-12T09:18:46Z</time>
      </trkpt>
      <trkpt lat="43.83834" lon="4.03258">
        <ele>73</ele>
        <time>2018-05-12T09:18:53Z</time>
      </trkpt>
      <trkpt lat="43.83819" lon="4.03235">
        <ele>73</ele>
        <time>2018-05-12T09:19:01Z</time>
      </trkpt>
      <trkpt lat="43.83804" lon="4.03218">
        <ele>73</ele>
        <time>2018-05-12T09:19:09Z</time>
      </trkpt>
      <trkpt lat="43.83785" lon="4.03205">
        <ele>73</ele>
        <time>2018-05-12T09:19:17Z</time>
      </trkpt>
      <trkpt lat="43.83766" lon="4.03193">
        <ele>73</ele>
        <time>2018-05-12T09:19:25Z</time>
      </trkpt>
      <trkpt lat="43.8375" lon="4.03179">
        <ele>72</ele>
        <time>2018-05-12T09:19:32Z</time>
      </trkpt>
      <trkpt lat="43.83749" lon="4.03172">
        <ele>73</ele>
        <time>2018-05-12T09:19:34Z</time>
      </trkpt>
      <trkpt lat="43.83751" lon="4.03169">
        <ele>73</ele>
        <time>2018-05-12T09:19:35Z</time>
      </trkpt>
      <trkpt lat="43.83753" lon="4.03166">
        <ele>73</ele>
        <time>2018-05-12T09:19:36Z</time>
      </trkpt>
      <trkpt lat="43.83768" lon="4.03144">
        <ele>73</ele>
        <time>2018-05-12T09:19:43Z</time>
      </trkpt>
      <trkpt lat="43.83782" lon="4.03129">
        <ele>73</ele>
        <time>2018-05-12T09:19:49Z</time>
      </trkpt>
      <trkpt lat="43.83799" lon="4.03113">
        <ele>73</ele>
        <time>2018-05-12T09:19:56Z</time>
      </trkpt>
      <trkpt lat="43.83814" lon="4.03097">
        <ele>74</ele>
        <time>2018-05-12T09:20:03Z</time>
      </trkpt>
      <trkpt lat="43.8383" lon="4.03082">
        <ele>74</ele>
        <time>2018-05-12T09:20:10Z</time>
      </trkpt>
      <trkpt lat="43.83847" lon="4.03065">
        <ele>76</ele>
        <time>2018-05-12T09:20:17Z</time>
      </trkpt>
      <trkpt lat="43.83865" lon="4.03048">
        <ele>77</ele>
        <time>2018-05-12T09:20:25Z</time>
      </trkpt>
      <trkpt lat="43.83882" lon="4.0303">
        <ele>78</ele>
        <time>2018-05-12T09:20:32Z</time>
      </trkpt>
      <trkpt lat="43.83897" lon="4.03014">
        <ele>78</ele>
        <time>2018-05-12T09:20:39Z</time>
      </trkpt>
      <trkpt lat="43.83913" lon="4.02997">
        <ele>80</ele>
        <time>2018-05-12T09:20:46Z</time>
      </trkpt>
      <trkpt lat="43.83928" lon="4.02983">
        <ele>81</ele>
        <time>2018-05-12T09:20:53Z</time>
      </trkpt>
      <trkpt lat="43.83943" lon="4.02968">
        <ele>82</ele>
        <time>2018-05-12T09:21:00Z</time>
      </trkpt>
      <trkpt lat="43.83959" lon="4.02952">
        <ele>83</ele>
        <time>2018-05-12T09:21:08Z</time>
      </trkpt>
      <trkpt lat="43.83975" lon="4.02935">
        <ele>83</ele>
        <time>2018-05-12T09:21:16Z</time>
      </trkpt>
      <trkpt lat="43.83993" lon="4.02924">
        <ele>85</ele>
        <time>2018-05-12T09:21:24Z</time>
      </trkpt>
      <trkpt lat="43.84011" lon="4.02913">
        <ele>87</ele>
        <time>2018-05-12T09:21:32Z</time>
      </trkpt>
      <trkpt lat="43.8403" lon="4.02908">
        <ele>88</ele>
        <time>2018-05-12T09:21:40Z</time>
      </trkpt>
      <trkpt lat="43.84049" lon="4.02905">
        <ele>89</ele>
        <time>2018-05-12T09:21:48Z</time>
      </trkpt>
      <trkpt lat="43.8407" lon="4.02902">
        <ele>89</ele>
        <time>2018-05-12T09:21:57Z</time>
      </trkpt>
      <trkpt lat="43.84091" lon="4.02897">
        <ele>92</ele>
        <time>2018-05-12T09:22:06Z</time>
      </trkpt>
      <trkpt lat="43.84111" lon="4.0289">
        <ele>93</ele>
        <time>2018-05-12T09:22:14Z</time>
      </trkpt>
      <trkpt lat="43.84133" lon="4.02885">
        <ele>94</ele>
        <time>2018-05-12T09:22:23Z</time>
      </trkpt>
      <trkpt lat="43.84152" lon="4.02881">
        <ele>95</ele>
        <time>2018-05-12T09:22:32Z</time>
      </trkpt>
      <trkpt lat="43.84172" lon="4.02878">
        <ele>99</ele>
        <time>2018-05-12T09:22:40Z</time>
      </trkpt>
      <trkpt lat="43.84193" lon="4.02873">
        <ele>100</ele>
        <time>2018-05-12T09:22:48Z</time>
      </trkpt>
      <trkpt lat="43.84214" lon="4.02865">
        <ele>101</ele>
        <time>2018-05-12T09:22:56Z</time>
      </trkpt>
      <trkpt lat="43.84232" lon="4.02853">
        <ele>102</ele>
        <time>2018-05-12T09:23:04Z</time>
      </trkpt>
      <trkpt lat="43.84248" lon="4.02835">
        <ele>105</ele>
        <time>2018-05-12T09:23:12Z</time>
      </trkpt>
      <trkpt lat="43.84262" lon="4.02814">
        <ele>111</ele>
        <time>2018-05-12T09:23:20Z</time>
      </trkpt>
      <trkpt lat="43.84264" lon="4.02786">
        <ele>112</ele>
        <time>2018-05-12T09:23:30Z</time>
      </trkpt>
      <trkpt lat="43.84261" lon="4.02757">
        <ele>111</ele>
        <time>2018-05-12T09:23:40Z</time>
      </trkpt>
      <trkpt lat="43.84256" lon="4.02727">
        <ele>115</ele>
        <time>2018-05-12T09:23:49Z</time>
      </trkpt>
      <trkpt lat="43.84248" lon="4.02697">
        <ele>109</ele>
        <time>2018-05-12T09:23:57Z</time>
      </trkpt>
      <trkpt lat="43.8424" lon="4.02671">
        <ele>111</ele>
        <time>2018-05-12T09:24:04Z</time>
      </trkpt>
      <trkpt lat="43.8423" lon="4.02643">
        <ele>112</ele>
        <time>2018-05-12T09:24:12Z</time>
      </trkpt>
      <trkpt lat="43.84222" lon="4.02617">
        <ele>112</ele>
        <time>2018-05-12T09:24:19Z</time>
      </trkpt>
      <trkpt lat="43.84213" lon="4.0259">
        <ele>112</ele>
        <time>2018-05-12T09:24:27Z</time>
      </trkpt>
      <trkpt lat="43.84208" lon="4.02561">
        <ele>115</ele>
        <time>2018-05-12T09:24:35Z</time>
      </trkpt>
      <trkpt lat="43.84207" lon="4.02531">
        <ele>116</ele>
        <time>2018-05-12T09:24:44Z</time>
      </trkpt>
      <trkpt lat="43.84209" lon="4.02502">
        <ele>117</ele>
        <time>2018-05-12T09:24:52Z</time>
      </trkpt>
      <trkpt lat="43.84214" lon="4.02478">
        <ele>119</ele>
        <time>2018-05-12T09:24:59Z</time>
      </trkpt>
      <trkpt lat="43.84219" lon="4.02449">
        <ele>120</ele>
        <time>2018-05-12T09:25:08Z</time>
      </trkpt>
      <trkpt lat="43.84222" lon="4.0242">
        <ele>121</ele>
        <time>2018-05-12T09:25:16Z</time>
      </trkpt>
      <trkpt lat="43.8422" lon="4.02386">
        <ele>121</ele>
        <time>2018-05-12T09:25:24Z</time>
      </trkpt>
      <trkpt lat="43.8421" lon="4.0236">
        <ele>120</ele>
        <time>2018-05-12T09:25:31Z</time>
      </trkpt>
      <trkpt lat="43.84199" lon="4.02334">
        <ele>120</ele>
        <time>2018-05-12T09:25:38Z</time>
      </trkpt>
      <trkpt lat="43.84197" lon="4.02307">
        <ele>117</ele>
        <time>2018-05-12T09:25:45Z</time>
      </trkpt>
      <trkpt lat="43.84204" lon="4.02282">
        <ele>116</ele>
        <time>2018-05-12T09:25:52Z</time>
      </trkpt>
      <trkpt lat="43.8422" lon="4.02264">
        <ele>115</ele>
        <time>2018-05-12T09:25:59Z</time>
      </trkpt>
      <trkpt lat="43.84223" lon="4.02262">
        <ele>115</ele>
        <time>2018-05-12T09:26:00Z</time>
      </trkpt>
      <trkpt lat="43.8424" lon="4.0225">
        <ele>114</ele>
        <time>2018-05-12T09:26:06Z</time>
      </trkpt>
      <trkpt lat="43.84259" lon="4.02239">
        <ele>112</ele>
        <time>2018-05-12T09:26:13Z</time>
      </trkpt>
      <trkpt lat="43.84277" lon="4.02227">
        <ele>112</ele>
        <time>2018-05-12T09:26:20Z</time>
      </trkpt>
      <trkpt lat="43.84295" lon="4.02217">
        <ele>112</ele>
        <time>2018-05-12T09:26:27Z</time>
      </trkpt>
      <trkpt lat="43.84313" lon="4.02203">
        <ele>111</ele>
        <time>2018-05-12T09:26:34Z</time>
      </trkpt>
      <trkpt lat="43.84328" lon="4.02185">
        <ele>110</ele>
        <time>2018-05-12T09:26:41Z</time>
      </trkpt>
      <trkpt lat="43.84342" lon="4.02164">
        <ele>108</ele>
        <time>2018-05-12T09:26:48Z</time>
      </trkpt>
      <trkpt lat="43.84356" lon="4.02144">
        <ele>107</ele>
        <time>2018-05-12T09:26:55Z</time>
      </trkpt>
      <trkpt lat="43.84371" lon="4.02127">
        <ele>106</ele>
        <time>2018-05-12T09:27:02Z</time>
      </trkpt>
      <trkpt lat="43.8439" lon="4.02118">
        <ele>106</ele>
        <time>2018-05-12T09:27:09Z</time>
      </trkpt>
      <trkpt lat="43.8441" lon="4.02115">
        <ele>105</ele>
        <time>2018-05-12T09:27:16Z</time>
      </trkpt>
      <trkpt lat="43.8443" lon="4.02113">
        <ele>103</ele>
        <time>2018-05-12T09:27:23Z</time>
      </trkpt>
      <trkpt lat="43.84451" lon="4.02113">
        <ele>103</ele>
        <time>2018-05-12T09:27:30Z</time>
      </trkpt>
      <trkpt lat="43.84471" lon="4.02112">
        <ele>102</ele>
        <time>2018-05-12T09:27:37Z</time>
      </trkpt>
      <trkpt lat="43.84491" lon="4.02111">
        <ele>102</ele>
        <time>2018-05-12T09:27:44Z</time>
      </trkpt>
      <trkpt lat="43.84511" lon="4.02107">
        <ele>100</ele>
        <time>2018-05-12T09:27:51Z</time>
      </trkpt>
      <trkpt lat="43.84531" lon="4.02099">
        <ele>100</ele>
        <time>2018-05-12T09:27:58Z</time>
      </trkpt>
      <trkpt lat="43.84551" lon="4.02091">
        <ele>99</ele>
        <time>2018-05-12T09:28:05Z</time>
      </trkpt>
      <trkpt lat="43.84572" lon="4.02082">
        <ele>98</ele>
        <time>2018-05-12T09:28:12Z</time>
      </trkpt>
      <trkpt lat="43.84593" lon="4.02075">
        <ele>97</ele>
        <time>2018-05-12T09:28:19Z</time>
      </trkpt>
      <trkpt lat="43.84613" lon="4.02064">
        <ele>97</ele>
        <time>2018-05-12T09:28:26Z</time>
      </trkpt>
      <trkpt lat="43.84634" lon="4.02055">
        <ele>97</ele>
        <time>2018-05-12T09:28:33Z</time>
      </trkpt>
      <trkpt lat="43.84654" lon="4.02045">
        <ele>97</ele>
        <time>2018-05-12T09:28:40Z</time>
      </trkpt>
      <trkpt lat="43.84672" lon="4.02034">
        <ele>97</ele>
        <time>2018-05-12T09:28:47Z</time>
      </trkpt>
      <trkpt lat="43.84691" lon="4.02023">
        <ele>97</ele>
        <time>2018-05-12T09:28:54Z</time>
      </trkpt>
      <trkpt lat="43.8471" lon="4.02011">
        <ele>97</ele>
        <time>2018-05-12T09:29:01Z</time>
      </trkpt>
      <trkpt lat="43.84727" lon="4.01998">
        <ele>95</ele>
        <time>2018-05-12T09:29:08Z</time>
      </trkpt>
      <trkpt lat="43.84746" lon="4.01984">
        <ele>95</ele>
        <time>2018-05-12T09:29:15Z</time>
      </trkpt>
      <trkpt lat="43.84765" lon="4.01971">
        <ele>95</ele>
        <time>2018-05-12T09:29:22Z</time>
      </trkpt>
      <trkpt lat="43.84784" lon="4.01958">
        <ele>95</ele>
        <time>2018-05-12T09:29:29Z</time>
      </trkpt>
      <trkpt lat="43.84803" lon="4.01946">
        <ele>95</ele>
        <time>2018-05-12T09:29:36Z</time>
      </trkpt>
      <trkpt lat="43.84821" lon="4.01935">
        <ele>94</ele>
        <time>2018-05-12T09:29:43Z</time>
      </trkpt>
      <trkpt lat="43.8484" lon="4.01925">
        <ele>94</ele>
        <time>2018-05-12T09:29:50Z</time>
      </trkpt>
      <trkpt lat="43.84858" lon="4.01917">
        <ele>94</ele>
        <time>2018-05-12T09:29:57Z</time>
      </trkpt>
      <trkpt lat="43.84878" lon="4.01909">
        <ele>92</ele>
        <time>2018-05-12T09:30:04Z</time>
      </trkpt>
      <trkpt lat="43.84898" lon="4.01899">
        <ele>93</ele>
        <time>2018-05-12T09:30:11Z</time>
      </trkpt>
      <trkpt lat="43.84918" lon="4.01891">
        <ele>93</ele>
        <time>2018-05-12T09:30:18Z</time>
      </trkpt>
      <trkpt lat="43.84938" lon="4.01884">
        <ele>92</ele>
        <time>2018-05-12T09:30:25Z</time>
      </trkpt>
      <trkpt lat="43.84957" lon="4.01877">
        <ele>92</ele>
        <time>2018-05-12T09:30:32Z</time>
      </trkpt>
      <trkpt lat="43.84977" lon="4.01872">
        <ele>92</ele>
        <time>2018-05-12T09:30:39Z</time>
      </trkpt>
      <trkpt lat="43.84997" lon="4.01863">
        <ele>92</ele>
        <time>2018-05-12T09:30:46Z</time>
      </trkpt>
      <trkpt lat="43.85019" lon="4.01854">
        <ele>92</ele>
        <time>2018-05-12T09:30:53Z</time>
      </trkpt>
      <trkpt lat="43.85038" lon="4.01845">
        <ele>93</ele>
        <time>2018-05-12T09:31:00Z</time>
      </trkpt>
      <trkpt lat="43.85053" lon="4.01838">
        <ele>92</ele>
        <time>2018-05-12T09:31:05Z</time>
      </trkpt>
      <trkpt lat="43.85058" lon="4.01836">
        <ele>92</ele>
        <time>2018-05-12T09:31:07Z</time>
      </trkpt>
      <trkpt lat="43.85077" lon="4.01827">
        <ele>92</ele>
        <time>2018-05-12T09:31:14Z</time>
      </trkpt>
      <trkpt lat="43.85097" lon="4.01818">
        <ele>92</ele>
        <time>2018-05-12T09:31:21Z</time>
      </trkpt>
      <trkpt lat="43.85116" lon="4.0181">
        <ele>92</ele>
        <time>2018-05-12T09:31:28Z</time>
      </trkpt>
      <trkpt lat="43.85134" lon="4.01802">
        <ele>92</ele>
        <time>2018-05-12T09:31:35Z</time>
      </trkpt>
      <trkpt lat="43.85154" lon="4.01793">
        <ele>92</ele>
        <time>2018-05-12T09:31:42Z</time>
      </trkpt>
      <trkpt lat="43.85173" lon="4.01784">
        <ele>91</ele>
        <time>2018-05-12T09:31:49Z</time>
      </trkpt>
      <trkpt lat="43.85191" lon="4.01775">
        <ele>91</ele>
        <time>2018-05-12T09:31:56Z</time>
      </trkpt>
      <trkpt lat="43.85206" lon="4.01768">
        <ele>91</ele>
        <time>2018-05-12T09:32:01Z</time>
      </trkpt>
      <trkpt lat="43.85225" lon="4.01759">
        <ele>90</ele>
        <time>2018-05-12T09:32:08Z</time>
      </trkpt>
      <trkpt lat="43.85245" lon="4.01751">
        <ele>89</ele>
        <time>2018-05-12T09:32:15Z</time>
      </trkpt>
      <trkpt lat="43.85265" lon="4.01744">
        <ele>89</ele>
        <time>2018-05-12T09:32:22Z</time>
      </trkpt>
      <trkpt lat="43.85282" lon="4.01741">
        <ele>89</ele>
        <time>2018-05-12T09:32:28Z</time>
      </trkpt>
      <trkpt lat="43.85305" lon="4.01738">
        <ele>89</ele>
        <time>2018-05-12T09:32:36Z</time>
      </trkpt>
      <trkpt lat="43.85324" lon="4.01736">
        <ele>90</ele>
        <time>2018-05-12T09:32:43Z</time>
      </trkpt>
      <trkpt lat="43.85336" lon="4.01734">
        <ele>90</ele>
        <time>2018-05-12T09:32:47Z</time>
      </trkpt>
      <trkpt lat="43.85344" lon="4.01733">
        <ele>90</ele>
        <time>2018-05-12T09:32:50Z</time>
      </trkpt>
      <trkpt lat="43.85357" lon="4.01732">
        <ele>90</ele>
        <time>2018-05-12T09:32:55Z</time>
      </trkpt>
      <trkpt lat="43.85379" lon="4.01729">
        <ele>89</ele>
        <time>2018-05-12T09:33:03Z</time>
      </trkpt>
      <trkpt lat="43.85401" lon="4.01724">
        <ele>89</ele>
        <time>2018-05-12T09:33:11Z</time>
      </trkpt>
      <trkpt lat="43.85424" lon="4.01721">
        <ele>89</ele>
        <time>2018-05-12T09:33:19Z</time>
      </trkpt>
      <trkpt lat="43.85446" lon="4.01718">
        <ele>89</ele>
        <time>2018-05-12T09:33:27Z</time>
      </trkpt>
      <trkpt lat="43.85468" lon="4.01716">
        <ele>89</ele>
        <time>2018-05-12T09:33:35Z</time>
      </trkpt>
      <trkpt lat="43.8549" lon="4.01712">
        <ele>89</ele>
        <time>2018-05-12T09:33:44Z</time>
      </trkpt>
      <trkpt lat="43.85513" lon="4.01708">
        <ele>88</ele>
        <time>2018-05-12T09:33:52Z</time>
      </trkpt>
      <trkpt lat="43.85535" lon="4.01705">
        <ele>88</ele>
        <time>2018-05-12T09:33:59Z</time>
      </trkpt>
      <trkpt lat="43.85558" lon="4.017">
        <ele>88</ele>
        <time>2018-05-12T09:34:07Z</time>
      </trkpt>
      <trkpt lat="43.8558" lon="4.01697">
        <ele>88</ele>
        <time>2018-05-12T09:34:15Z</time>
      </trkpt>
      <trkpt lat="43.85604" lon="4.01695">
        <ele>87</ele>
        <time>2018-05-12T09:34:23Z</time>
      </trkpt>
      <trkpt lat="43.85625" lon="4.01692">
        <ele>86</ele>
        <time>2018-05-12T09:34:30Z</time>
      </trkpt>
      <trkpt lat="43.85646" lon="4.01692">
        <ele>86</ele>
        <time>2018-05-12T09:34:37Z</time>
      </trkpt>
      <trkpt lat="43.85667" lon="4.01692">
        <ele>86</ele>
        <time>2018-05-12T09:34:44Z</time>
      </trkpt>
      <trkpt lat="43.85689" lon="4.0169">
        <ele>86</ele>
        <time>2018-05-12T09:34:51Z</time>
      </trkpt>
      <trkpt lat="43.8571" lon="4.01688">
        <ele>86</ele>
        <time>2018-05-12T09:34:58Z</time>
      </trkpt>
      <trkpt lat="43.85731" lon="4.0169">
        <ele>86</ele>
        <time>2018-05-12T09:35:05Z</time>
      </trkpt>
      <trkpt lat="43.85753" lon="4.01692">
        <ele>87</ele>
        <time>2018-05-12T09:35:12Z</time>
      </trkpt>
      <trkpt lat="43.85774" lon="4.01693">
        <ele>87</ele>
        <time>2018-05-12T09:35:19Z</time>
      </trkpt>
      <trkpt lat="43.85795" lon="4.01695">
        <ele>86</ele>
        <time>2018-05-12T09:35:26Z</time>
      </trkpt>
      <trkpt lat="43.85815" lon="4.01696">
        <ele>87</ele>
        <time>2018-05-12T09:35:33Z</time>
      </trkpt>
      <trkpt lat="43.85837" lon="4.01698">
        <ele>87</ele>
        <time>2018-05-12T09:35:40Z</time>
      </trkpt>
      <trkpt lat="43.85859" lon="4.017">
        <ele>86</ele>
        <time>2018-05-12T09:35:47Z</time>
      </trkpt>
      <trkpt lat="43.85878" lon="4.01701">
        <ele>86</ele>
        <time>2018-05-12T09:35:54Z</time>
      </trkpt>
      <trkpt lat="43.85898" lon="4.01702">
        <ele>86</ele>
        <time>2018-05-12T09:36:01Z</time>
      </trkpt>
      <trkpt lat="43.85918" lon="4.01702">
        <ele>86</ele>
        <time>2018-05-12T09:36:08Z</time>
      </trkpt>
      <trkpt lat="43.85935" lon="4.01702">
        <ele>86</ele>
        <time>2018-05-12T09:36:14Z</time>
      </trkpt>
      <trkpt lat="43.85937" lon="4.01702">
        <ele>86</ele>
        <time>2018-05-12T09:36:15Z</time>
      </trkpt>
      <trkpt lat="43.85958" lon="4.01707">
        <ele>86</ele>
        <time>2018-05-12T09:36:22Z</time>
      </trkpt>
      <trkpt lat="43.85978" lon="4.01706">
        <ele>86</ele>
        <time>2018-05-12T09:36:29Z</time>
      </trkpt>
      <trkpt lat="43.85999" lon="4.01704">
        <ele>86</ele>
        <time>2018-05-12T09:36:36Z</time>
      </trkpt>
      <trkpt lat="43.86019" lon="4.01706">
        <ele>85</ele>
        <time>2018-05-12T09:36:43Z</time>
      </trkpt>
      <trkpt lat="43.86033" lon="4.01727">
        <ele>85</ele>
        <time>2018-05-12T09:36:50Z</time>
      </trkpt>
      <trkpt lat="43.86038" lon="4.01758">
        <ele>83</ele>
        <time>2018-05-12T09:36:58Z</time>
      </trkpt>
      <trkpt lat="43.86041" lon="4.01788">
        <ele>83</ele>
        <time>2018-05-12T09:37:05Z</time>
      </trkpt>
      <trkpt lat="43.86047" lon="4.01815">
        <ele>83</ele>
        <time>2018-05-12T09:37:12Z</time>
      </trkpt>
      <trkpt lat="43.86054" lon="4.01843">
        <ele>82</ele>
        <time>2018-05-12T09:37:20Z</time>
      </trkpt>
      <trkpt lat="43.8606" lon="4.01872">
        <ele>82</ele>
        <time>2018-05-12T09:37:28Z</time>
      </trkpt>
      <trkpt lat="43.86067" lon="4.01901">
        <ele>83</ele>
        <time>2018-05-12T09:37:36Z</time>
      </trkpt>
      <trkpt lat="43.86072" lon="4.01927">
        <ele>83</ele>
        <time>2018-05-12T09:37:43Z</time>
      </trkpt>
      <trkpt lat="43.86076" lon="4.01954">
        <ele>83</ele>
        <time>2018-05-12T09:37:50Z</time>
      </trkpt>
      <trkpt lat="43.86082" lon="4.01981">
        <ele>83</ele>
        <time>2018-05-12T09:37:57Z</time>
      </trkpt>
      <trkpt lat="43.86089" lon="4.02007">
        <ele>83</ele>
        <time>2018-05-12T09:38:04Z</time>
      </trkpt>
      <trkpt lat="43.86101" lon="4.0203">
        <ele>83</ele>
        <time>2018-05-12T09:38:11Z</time>
      </trkpt>
      <trkpt lat="43.86117" lon="4.02049">
        <ele>83</ele>
        <time>2018-05-12T09:38:18Z</time>
      </trkpt>
      <trkpt lat="43.86136" lon="4.02059">
        <ele>82</ele>
        <time>2018-05-12T09:38:25Z</time>
      </trkpt>
      <trkpt lat="43.86156" lon="4.02066">
        <ele>82</ele>
        <time>2018-05-12T09:38:32Z</time>
      </trkpt>
      <trkpt lat="43.86175" lon="4.02072">
        <ele>82</ele>
        <time>2018-05-12T09:38:39Z</time>
      </trkpt>
      <trkpt lat="43.86194" lon="4.02079">
        <ele>81</ele>
        <time>2018-05-12T09:38:46Z</time>
      </trkpt>
      <trkpt lat="43.86215" lon="4.02086">
        <ele>82</ele>
        <time>2018-05-12T09:38:54Z</time>
      </trkpt>
      <trkpt lat="43.86235" lon="4.02093">
        <ele>81</ele>
        <time>2018-05-12T09:39:01Z</time>
      </trkpt>
      <trkpt lat="43.86254" lon="4.02102">
        <ele>81</ele>
        <time>2018-05-12T09:39:08Z</time>
      </trkpt>
      <trkpt lat="43.86272" lon="4.02115">
        <ele>81</ele>
        <time>2018-05-12T09:39:15Z</time>
      </trkpt>
      <trkpt lat="43.8629" lon="4.02134">
        <ele>81</ele>
        <time>2018-05-12T09:39:23Z</time>
      </trkpt>
      <trkpt lat="43.86306" lon="4.02152">
        <ele>81</ele>
        <time>2018-05-12T09:39:30Z</time>
      </trkpt>
      <trkpt lat="43.86322" lon="4.0217">
        <ele>81</ele>
        <time>2018-05-12T09:39:37Z</time>
      </trkpt>
      <trkpt lat="43.86339" lon="4.02188">
        <ele>80</ele>
        <time>2018-05-12T09:39:44Z</time>
      </trkpt>
      <trkpt lat="43.86356" lon="4.02206">
        <ele>81</ele>
        <time>2018-05-12T09:39:51Z</time>
      </trkpt>
      <trkpt lat="43.86371" lon="4.02224">
        <ele>81</ele>
        <time>2018-05-12T09:39:58Z</time>
      </trkpt>
      <trkpt lat="43.86386" lon="4.02244">
        <ele>81</ele>
        <time>2018-05-12T09:40:05Z</time>
      </trkpt>
      <trkpt lat="43.86402" lon="4.02263">
        <ele>82</ele>
        <time>2018-05-12T09:40:12Z</time>
      </trkpt>
      <trkpt lat="43.86415" lon="4.02284">
        <ele>82</ele>
        <time>2018-05-12T09:40:19Z</time>
      </trkpt>
      <trkpt lat="43.8643" lon="4.02304">
        <ele>81</ele>
        <time>2018-05-12T09:40:26Z</time>
      </trkpt>
      <trkpt lat="43.86444" lon="4.02322">
        <ele>81</ele>
        <time>2018-05-12T09:40:33Z</time>
      </trkpt>
      <trkpt lat="43.86458" lon="4.02344">
        <ele>81</ele>
        <time>2018-05-12T09:40:41Z</time>
      </trkpt>
      <trkpt lat="43.86472" lon="4.02362">
        <ele>81</ele>
        <time>2018-05-12T09:40:48Z</time>
      </trkpt>
      <trkpt lat="43.86486" lon="4.0238">
        <ele>81</ele>
        <time>2018-05-12T09:40:55Z</time>
      </trkpt>
      <trkpt lat="43.86498" lon="4.02399">
        <ele>81</ele>
        <time>2018-05-12T09:41:02Z</time>
      </trkpt>
      <trkpt lat="43.86508" lon="4.02423">
        <ele>81</ele>
        <time>2018-05-12T09:41:09Z</time>
      </trkpt>
      <trkpt lat="43.86516" lon="4.02448">
        <ele>80</ele>
        <time>2018-05-12T09:41:16Z</time>
      </trkpt>
      <trkpt lat="43.86523" lon="4.02472">
        <ele>80</ele>
        <time>2018-05-12T09:41:23Z</time>
      </trkpt>
      <trkpt lat="43.86527" lon="4.0249">
        <ele>81</ele>
        <time>2018-05-12T09:41:28Z</time>
      </trkpt>
      <trkpt lat="43.8653" lon="4.02501">
        <ele>81</ele>
        <time>2018-05-12T09:41:31Z</time>
      </trkpt>
      <trkpt lat="43.86537" lon="4.02526">
        <ele>81</ele>
        <time>2018-05-12T09:41:38Z</time>
      </trkpt>
      <trkpt lat="43.86546" lon="4.02551">
        <ele>82</ele>
        <time>2018-05-12T09:41:45Z</time>
      </trkpt>
      <trkpt lat="43.86555" lon="4.02574">
        <ele>82</ele>
        <time>2018-05-12T09:41:52Z</time>
      </trkpt>
      <trkpt lat="43.86568" lon="4.02594">
        <ele>83</ele>
        <time>2018-05-12T09:41:59Z</time>
      </trkpt>
      <trkpt lat="43.86583" lon="4.02609">
        <ele>82</ele>
        <time>2018-05-12T09:42:06Z</time>
      </trkpt>
      <trkpt lat="43.866" lon="4.02623">
        <ele>82</ele>
        <time>2018-05-12T09:42:13Z</time>
      </trkpt>
      <trkpt lat="43.86617" lon="4.02637">
        <ele>82</ele>
        <time>2018-05-12T09:42:20Z</time>
      </trkpt>
      <trkpt lat="43.86634" lon="4.02648">
        <ele>82</ele>
        <time>2018-05-12T09:42:27Z</time>
      </trkpt>
      <trkpt lat="43.86652" lon="4.02658">
        <ele>82</ele>
        <time>2018-05-12T09:42:34Z</time>
      </trkpt>
      <trkpt lat="43.8667" lon="4.0267">
        <ele>82</ele>
        <time>2018-05-12T09:42:41Z</time>
      </trkpt>
      <trkpt lat="43.86687" lon="4.02681">
        <ele>81</ele>
        <time>2018-05-12T09:42:48Z</time>
      </trkpt>
      <trkpt lat="43.86706" lon="4.02695">
        <ele>81</ele>
        <time>2018-05-12T09:42:56Z</time>
      </trkpt>
      <trkpt lat="43.86725" lon="4.02709">
        <ele>81</ele>
        <time>2018-05-12T09:43:04Z</time>
      </trkpt>
      <trkpt lat="43.86743" lon="4.02722">
        <ele>81</ele>
        <time>2018-05-12T09:43:11Z</time>
      </trkpt>
      <trkpt lat="43.8676" lon="4.02734">
        <ele>80</ele>
        <time>2018-05-12T09:43:18Z</time>
      </trkpt>
      <trkpt lat="43.86778" lon="4.0275">
        <ele>82</ele>
        <time>2018-05-12T09:43:26Z</time>
      </trkpt>
      <trkpt lat="43.86793" lon="4.02765">
        <ele>82</ele>
        <time>2018-05-12T09:43:33Z</time>
      </trkpt>
      <trkpt lat="43.86808" lon="4.02781">
        <ele>82</ele>
        <time>2018-05-12T09:43:40Z</time>
      </trkpt>
      <trkpt lat="43.86823" lon="4.02797">
        <ele>83</ele>
        <time>2018-05-12T09:43:48Z</time>
      </trkpt>
      <trkpt lat="43.86839" lon="4.02813">
        <ele>82</ele>
        <time>2018-05-12T09:43:55Z</time>
      </trkpt>
      <trkpt lat="43.86853" lon="4.02826">
        <ele>82</ele>
        <time>2018-05-12T09:44:02Z</time>
      </trkpt>
      <trkpt lat="43.8687" lon="4.02841">
        <ele>85</ele>
        <time>2018-05-12T09:44:10Z</time>
      </trkpt>
      <trkpt lat="43.86889" lon="4.02854">
        <ele>85</ele>
        <time>2018-05-12T09:44:18Z</time>
      </trkpt>
      <trkpt lat="43.86908" lon="4.02868">
        <ele>85</ele>
        <time>2018-05-12T09:44:26Z</time>
      </trkpt>
      <trkpt lat="43.86925" lon="4.02881">
        <ele>83</ele>
        <time>2018-05-12T09:44:34Z</time>
      </trkpt>
      <trkpt lat="43.86943" lon="4.02895">
        <ele>84</ele>
        <time>2018-05-12T09:44:42Z</time>
      </trkpt>
      <trkpt lat="43.86963" lon="4.02906">
        <ele>83</ele>
        <time>2018-05-12T09:44:50Z</time>
      </trkpt>
      <trkpt lat="43.86983" lon="4.02917">
        <ele>88</ele>
        <time>2018-05-12T09:44:58Z</time>
      </trkpt>
      <trkpt lat="43.87002" lon="4.02926">
        <ele>84</ele>
        <time>2018-05-12T09:45:06Z</time>
      </trkpt>
      <trkpt lat="43.8702" lon="4.02938">
        <ele>84</ele>
        <time>2018-05-12T09:45:13Z</time>
      </trkpt>
      <trkpt lat="43.87039" lon="4.02949">
        <ele>84</ele>
        <time>2018-05-12T09:45:20Z</time>
      </trkpt>
      <trkpt lat="43.87058" lon="4.02962">
        <ele>84</ele>
        <time>2018-05-12T09:45:27Z</time>
      </trkpt>
      <trkpt lat="43.87076" lon="4.02977">
        <ele>84</ele>
        <time>2018-05-12T09:45:34Z</time>
      </trkpt>
      <trkpt lat="43.87094" lon="4.02991">
        <ele>80</ele>
        <time>2018-05-12T09:45:41Z</time>
      </trkpt>
      <trkpt lat="43.87112" lon="4.03006">
        <ele>82</ele>
        <time>2018-05-12T09:45:48Z</time>
      </trkpt>
      <trkpt lat="43.87129" lon="4.0302">
        <ele>82</ele>
        <time>2018-05-12T09:45:55Z</time>
      </trkpt>
      <trkpt lat="43.87146" lon="4.03032">
        <ele>81</ele>
        <time>2018-05-12T09:46:02Z</time>
      </trkpt>
      <trkpt lat="43.87163" lon="4.03049">
        <ele>82</ele>
        <time>2018-05-12T09:46:10Z</time>
      </trkpt>
      <trkpt lat="43.87178" lon="4.03066">
        <ele>78</ele>
        <time>2018-05-12T09:46:17Z</time>
      </trkpt>
      <trkpt lat="43.87195" lon="4.03086">
        <ele>82</ele>
        <time>2018-05-12T09:46:25Z</time>
      </trkpt>
      <trkpt lat="43.87211" lon="4.03103">
        <ele>81</ele>
        <time>2018-05-12T09:46:32Z</time>
      </trkpt>
      <trkpt lat="43.87228" lon="4.03121">
        <ele>81</ele>
        <time>2018-05-12T09:46:40Z</time>
      </trkpt>
      <trkpt lat="43.87246" lon="4.03141">
        <ele>81</ele>
        <time>2018-05-12T09:46:48Z</time>
      </trkpt>
      <trkpt lat="43.87262" lon="4.03159">
        <ele>78</ele>
        <time>2018-05-12T09:46:55Z</time>
      </trkpt>
      <trkpt lat="43.87264" lon="4.03161">
        <ele>78</ele>
        <time>2018-05-12T09:46:56Z</time>
      </trkpt>
      <trkpt lat="43.87279" lon="4.03177">
        <ele>82</ele>
        <time>2018-05-12T09:47:03Z</time>
      </trkpt>
      <trkpt lat="43.87295" lon="4.03198">
        <ele>82</ele>
        <time>2018-05-12T09:47:11Z</time>
      </trkpt>
      <trkpt lat="43.87309" lon="4.03222">
        <ele>83</ele>
        <time>2018-05-12T09:47:19Z</time>
      </trkpt>
      <trkpt lat="43.87322" lon="4.03244">
        <ele>83</ele>
        <time>2018-05-12T09:47:27Z</time>
      </trkpt>
      <trkpt lat="43.87336" lon="4.03267">
        <ele>83</ele>
        <time>2018-05-12T09:47:35Z</time>
      </trkpt>
      <trkpt lat="43.8735" lon="4.03288">
        <ele>84</ele>
        <time>2018-05-12T09:47:43Z</time>
      </trkpt>
      <trkpt lat="43.87364" lon="4.03309">
        <ele>84</ele>
        <time>2018-05-12T09:47:51Z</time>
      </trkpt>
      <trkpt lat="43.87376" lon="4.03331">
        <ele>84</ele>
        <time>2018-05-12T09:47:59Z</time>
      </trkpt>
      <trkpt lat="43.87388" lon="4.03355">
        <ele>86</ele>
        <time>2018-05-12T09:48:07Z</time>
      </trkpt>
      <trkpt lat="43.87398" lon="4.03379">
        <ele>86</ele>
        <time>2018-05-12T09:48:15Z</time>
      </trkpt>
      <trkpt lat="43.87408" lon="4.03404">
        <ele>86</ele>
        <time>2018-05-12T09:48:23Z</time>
      </trkpt>
      <trkpt lat="43.87417" lon="4.03428">
        <ele>86</ele>
        <time>2018-05-12T09:48:31Z</time>
      </trkpt>
      <trkpt lat="43.87423" lon="4.03455">
        <ele>85</ele>
        <time>2018-05-12T09:48:39Z</time>
      </trkpt>
      <trkpt lat="43.87433" lon="4.03484">
        <ele>86</ele>
        <time>2018-05-12T09:48:47Z</time>
      </trkpt>
      <trkpt lat="43.8744" lon="4.03513">
        <ele>85</ele>
        <time>2018-05-12T09:48:55Z</time>
      </trkpt>
      <trkpt lat="43.87448" lon="4.03543">
        <ele>85</ele>
        <time>2018-05-12T09:49:03Z</time>
      </trkpt>
      <trkpt lat="43.87454" lon="4.03573">
        <ele>85</ele>
        <time>2018-05-12T09:49:11Z</time>
      </trkpt>
      <trkpt lat="43.8746" lon="4.03601">
        <ele>84</ele>
        <time>2018-05-12T09:49:19Z</time>
      </trkpt>
      <trkpt lat="43.87462" lon="4.03632">
        <ele>83</ele>
        <time>2018-05-12T09:49:27Z</time>
      </trkpt>
      <trkpt lat="43.87464" lon="4.03663">
        <ele>83</ele>
        <time>2018-05-12T09:49:35Z</time>
      </trkpt>
      <trkpt lat="43.87463" lon="4.03693">
        <ele>81</ele>
        <time>2018-05-12T09:49:42Z</time>
      </trkpt>
      <trkpt lat="43.87465" lon="4.03724">
        <ele>80</ele>
        <time>2018-05-12T09:49:50Z</time>
      </trkpt>
      <trkpt lat="43.87465" lon="4.03753">
        <ele>79</ele>
        <time>2018-05-12T09:49:58Z</time>
      </trkpt>
      <trkpt lat="43.87462" lon="4.03781">
        <ele>78</ele>
        <time>2018-05-12T09:50:05Z</time>
      </trkpt>
      <trkpt lat="43.87455" lon="4.03807">
        <ele>78</ele>
        <time>2018-05-12T09:50:13Z</time>
      </trkpt>
      <trkpt lat="43.87448" lon="4.03834">
        <ele>77</ele>
        <time>2018-05-12T09:50:22Z</time>
      </trkpt>
      <trkpt lat="43.87443" lon="4.03861">
        <ele>76</ele>
        <time>2018-05-12T09:50:30Z</time>
      </trkpt>
      <trkpt lat="43.87437" lon="4.03889">
        <ele>76</ele>
        <time>2018-05-12T09:50:38Z</time>
      </trkpt>
      <trkpt lat="43.8743" lon="4.03921">
        <ele>75</ele>
        <time>2018-05-12T09:50:47Z</time>
      </trkpt>
      <trkpt lat="43.87424" lon="4.03951">
        <ele>75</ele>
        <time>2018-05-12T09:50:55Z</time>
      </trkpt>
      <trkpt lat="43.87418" lon="4.03979">
        <ele>74</ele>
        <time>2018-05-12T09:51:04Z</time>
      </trkpt>
      <trkpt lat="43.87408" lon="4.04007">
        <ele>72</ele>
        <time>2018-05-12T09:51:13Z</time>
      </trkpt>
      <trkpt lat="43.87393" lon="4.04034">
        <ele>71</ele>
        <time>2018-05-12T09:51:21Z</time>
      </trkpt>
      <trkpt lat="43.87376" lon="4.04051">
        <ele>71</ele>
        <time>2018-05-12T09:51:29Z</time>
      </trkpt>
      <trkpt lat="43.87358" lon="4.04068">
        <ele>70</ele>
        <time>2018-05-12T09:51:37Z</time>
      </trkpt>
      <trkpt lat="43.87339" lon="4.04096">
        <ele>69</ele>
        <time>2018-05-12T09:51:45Z</time>
      </trkpt>
      <trkpt lat="43.87326" lon="4.04121">
        <ele>66</ele>
        <time>2018-05-12T09:51:53Z</time>
      </trkpt>
      <trkpt lat="43.87319" lon="4.04147">
        <ele>66</ele>
        <time>2018-05-12T09:52:01Z</time>
      </trkpt>
      <trkpt lat="43.87318" lon="4.0415">
        <ele>66</ele>
        <time>2018-05-12T09:52:02Z</time>
      </trkpt>
      <trkpt lat="43.87316" lon="4.04154">
        <ele>66</ele>
        <time>2018-05-12T09:52:03Z</time>
      </trkpt>
      <trkpt lat="43.87314" lon="4.04157">
        <ele>66</ele>
        <time>2018-05-12T09:52:04Z</time>
      </trkpt>
      <trkpt lat="43.87311" lon="4.04159">
        <ele>66</ele>
        <time>2018-05-12T09:52:05Z</time>
      </trkpt>
      <trkpt lat="43.87308" lon="4.0416">
        <ele>66</ele>
        <time>2018-05-12T09:52:06Z</time>
      </trkpt>
      <trkpt lat="43.87305" lon="4.04158">
        <ele>66</ele>
        <time>2018-05-12T09:52:07Z</time>
      </trkpt>
      <trkpt lat="43.87302" lon="4.04157">
        <ele>65</ele>
        <time>2018-05-12T09:52:08Z</time>
      </trkpt>
      <trkpt lat="43.87298" lon="4.04155">
        <ele>65</ele>
        <time>2018-05-12T09:52:09Z</time>
      </trkpt>
      <trkpt lat="43.87275" lon="4.04144">
        <ele>64</ele>
        <time>2018-05-12T09:52:16Z</time>
      </trkpt>
      <trkpt lat="43.87253" lon="4.04132">
        <ele>64</ele>
        <time>2018-05-12T09:52:23Z</time>
      </trkpt>
      <trkpt lat="43.8725" lon="4.0413">
        <ele>60</ele>
        <time>2018-05-12T09:52:24Z</time>
      </trkpt>
      <trkpt lat="43.87234" lon="4.04116">
        <ele>60</ele>
        <time>2018-05-12T09:52:30Z</time>
      </trkpt>
      <trkpt lat="43.87216" lon="4.04098">
        <ele>60</ele>
        <time>2018-05-12T09:52:37Z</time>
      </trkpt>
      <trkpt lat="43.87199" lon="4.04082">
        <ele>62</ele>
        <time>2018-05-12T09:52:44Z</time>
      </trkpt>
      <trkpt lat="43.87181" lon="4.04066">
        <ele>62</ele>
        <time>2018-05-12T09:52:51Z</time>
      </trkpt>
      <trkpt lat="43.87164" lon="4.0405">
        <ele>60</ele>
        <time>2018-05-12T09:52:58Z</time>
      </trkpt>
      <trkpt lat="43.87146" lon="4.04037">
        <ele>61</ele>
        <time>2018-05-12T09:53:05Z</time>
      </trkpt>
      <trkpt lat="43.87127" lon="4.04032">
        <ele>60</ele>
        <time>2018-05-12T09:53:12Z</time>
      </trkpt>
      <trkpt lat="43.87107" lon="4.04027">
        <ele>60</ele>
        <time>2018-05-12T09:53:19Z</time>
      </trkpt>
      <trkpt lat="43.87097" lon="4.0402">
        <ele>61</ele>
        <time>2018-05-12T09:53:24Z</time>
      </trkpt>
      <trkpt lat="43.87098" lon="4.04017">
        <ele>61</ele>
        <time>2018-05-12T09:53:25Z</time>
      </trkpt>
      <trkpt lat="43.87101" lon="4.04016">
        <ele>61</ele>
        <time>2018-05-12T09:53:26Z</time>
      </trkpt>
      <trkpt lat="43.87103" lon="4.04016">
        <ele>61</ele>
        <time>2018-05-12T09:53:27Z</time>
      </trkpt>
      <trkpt lat="43.87106" lon="4.04016">
        <ele>61</ele>
        <time>2018-05-12T09:53:28Z</time>
      </trkpt>
      <trkpt lat="43.87127" lon="4.04014">
        <ele>61</ele>
        <time>2018-05-12T09:53:36Z</time>
      </trkpt>
      <trkpt lat="43.87129" lon="4.04014">
        <ele>61</ele>
        <time>2018-05-12T09:53:37Z</time>
      </trkpt>
    </trkseg>
  </trk>
</gpx>